createdAt,value
2022-10-04T00:01:45.419Z,82.00
2022-10-04T00:04:28.407Z,82.02
2022-10-04T00:07:03.289Z,81.81
2022-10-04T00:09:36.268Z,81.60
2022-10-04T00:12:05.979Z,81.87
2022-10-04T00:14:39.501Z,82.00
2022-10-04T00:17:20.354Z,81.58
2022-10-04T00:19:50.570Z,81.83
2022-10-04T00:22:23.700Z,81.83
2022-10-04T00:25:21.227Z,81.83
2022-10-04T00:28:28.936Z,81.84
2022-10-04T00:31:09.155Z,81.96
2022-10-04T00:33:44.052Z,81.48
2022-10-04T00:36:24.177Z,81.44
2022-10-04T00:39:13.318Z,81.76
2022-10-04T00:41:47.411Z,81.54
2022-10-04T00:44:47.420Z,81.30
2022-10-04T00:47:21.273Z,81.55
2022-10-04T00:49:52.041Z,80.94
2022-10-04T00:52:26.303Z,81.30
2022-10-04T00:55:00.154Z,80.83
2022-10-04T00:57:37.349Z,81.08
2022-10-04T01:00:12.172Z,80.95
2022-10-04T01:02:45.741Z,81.00
2022-10-04T01:05:16.352Z,81.11
2022-10-04T01:07:56.147Z,81.11
2022-10-04T01:10:29.889Z,81.09
2022-10-04T01:13:16.567Z,81.17
2022-10-04T01:16:14.878Z,81.32
2022-10-04T01:18:43.410Z,81.41
2022-10-04T01:21:20.361Z,81.19
2022-10-04T01:23:51.181Z,81.62
2022-10-04T01:26:32.357Z,81.37
2022-10-04T01:29:08.070Z,81.58
2022-10-04T01:31:45.986Z,81.62
2022-10-04T01:34:16.751Z,81.18
2022-10-04T01:36:47.793Z,80.95
2022-10-04T01:39:18.208Z,80.70
2022-10-04T01:41:54.163Z,80.49
2022-10-04T01:44:27.895Z,80.53
2022-10-04T01:47:02.136Z,80.55
2022-10-04T01:49:34.540Z,80.32
2022-10-04T01:52:40.852Z,80.40
2022-10-04T01:55:17.261Z,80.38
2022-10-04T01:57:50.717Z,79.98
2022-10-04T02:00:22.110Z,80.27
2022-10-04T02:03:00.901Z,80.06
2022-10-04T02:05:38.542Z,80.05
2022-10-04T02:08:13.547Z,80.23
2022-10-04T02:10:43.715Z,80.22
2022-10-04T02:13:15.482Z,79.69
2022-10-04T02:15:44.835Z,79.71
2022-10-04T02:18:15.776Z,79.56
2022-10-04T02:20:45.490Z,79.41
2022-10-04T02:23:14.477Z,79.33
2022-10-04T02:25:42.295Z,79.61
2022-10-04T02:28:12.350Z,79.40
2022-10-04T02:30:44.540Z,79.35
2022-10-04T02:33:12.616Z,79.49
2022-10-04T02:35:46.471Z,78.95
2022-10-04T02:38:14.843Z,79.27
2022-10-04T02:40:56.148Z,79.29
2022-10-04T02:43:30.605Z,79.18
2022-10-04T02:46:17.733Z,79.34
2022-10-04T02:48:56.314Z,79.18
2022-10-04T02:51:33.645Z,79.24
2022-10-04T02:54:07.872Z,79.48
2022-10-04T02:56:37.731Z,79.33
2022-10-04T02:59:07.255Z,79.61
2022-10-04T03:01:57.820Z,79.61
2022-10-04T03:04:30.541Z,79.85
2022-10-04T03:07:02.270Z,79.80
2022-10-04T03:09:30.592Z,79.72
2022-10-04T03:11:59.212Z,79.95
2022-10-04T03:14:28.949Z,80.07
2022-10-04T03:17:00.846Z,80.10
2022-10-04T03:19:33.930Z,79.75
2022-10-04T03:22:08.890Z,79.65
2022-10-04T03:25:02.614Z,79.92
2022-10-04T03:27:34.564Z,79.72
2022-10-04T03:30:03.018Z,79.40
2022-10-04T03:32:32.533Z,79.43
2022-10-04T03:35:07.947Z,79.33
2022-10-04T03:37:38.568Z,79.50
2022-10-04T03:40:10.232Z,79.28
2022-10-04T03:42:39.711Z,79.42
2022-10-04T03:45:15.754Z,79.56
2022-10-04T03:47:48.624Z,79.67
2022-10-04T03:50:21.247Z,79.69
2022-10-04T03:52:54.749Z,79.73
2022-10-04T03:55:32.239Z,79.93
2022-10-04T03:58:01.331Z,79.94
2022-10-04T04:00:29.718Z,79.77
2022-10-04T04:03:01.183Z,79.74
2022-10-04T04:05:39.561Z,79.91
2022-10-04T04:08:12.417Z,79.71
2022-10-04T04:10:54.537Z,79.65
2022-10-04T04:13:45.604Z,79.54
2022-10-04T04:16:14.992Z,79.70
2022-10-04T04:18:45.455Z,79.83
2022-10-04T04:21:18.886Z,79.81
2022-10-04T04:24:02.843Z,80.01
2022-10-04T04:26:36.807Z,80.18
2022-10-04T04:29:11.315Z,80.07
2022-10-04T04:32:09.198Z,80.11
2022-10-04T04:34:51.282Z,79.85
2022-10-04T04:37:20.096Z,80.21
2022-10-04T04:39:55.090Z,80.32
2022-10-04T04:42:33.113Z,80.52
2022-10-04T04:45:07.010Z,80.58
2022-10-04T04:47:37.405Z,80.71
2022-10-04T04:50:15.524Z,80.82
2022-10-04T04:52:58.910Z,80.84
2022-10-04T04:55:44.498Z,81.03
2022-10-04T04:58:22.316Z,81.23
2022-10-04T05:00:55.959Z,81.44
2022-10-04T05:03:24.163Z,81.29
2022-10-04T05:05:52.465Z,81.47
2022-10-04T05:08:20.305Z,81.04
2022-10-04T05:10:55.563Z,81.37
2022-10-04T05:13:32.048Z,81.49
2022-10-04T05:16:01.121Z,81.44
2022-10-04T05:18:33.520Z,81.53
2022-10-04T05:21:20.680Z,81.61
2022-10-04T05:23:49.067Z,81.09
2022-10-04T05:26:25.175Z,80.54
2022-10-04T05:28:54.823Z,80.70
2022-10-04T05:31:35.157Z,80.71
2022-10-04T05:34:15.999Z,80.51
2022-10-04T05:37:20.606Z,80.01
2022-10-04T05:39:54.304Z,80.34
2022-10-04T05:42:24.189Z,80.32
2022-10-04T05:44:57.321Z,79.97
2022-10-04T05:47:31.130Z,79.68
2022-10-04T05:50:01.118Z,79.31
2022-10-04T05:52:34.605Z,79.69
2022-10-04T05:55:28.741Z,79.74
2022-10-04T05:58:25.352Z,79.79
2022-10-04T06:01:11.370Z,80.07
2022-10-04T06:03:54.920Z,79.35
2022-10-04T06:06:31.387Z,79.24
2022-10-04T06:09:34.904Z,78.61
2022-10-04T06:12:17.632Z,78.45
2022-10-04T06:15:05.438Z,78.05
2022-10-04T06:18:12.461Z,78.51
2022-10-04T06:20:46.112Z,78.48
2022-10-04T06:23:17.121Z,78.65
2022-10-04T06:26:10.372Z,78.44
2022-10-04T06:28:43.330Z,78.73
2022-10-04T06:31:34.500Z,78.35
2022-10-04T06:34:36.508Z,78.33
2022-10-04T06:37:22.908Z,78.13
2022-10-04T06:40:26.164Z,78.08
2022-10-04T06:43:05.225Z,77.61
2022-10-04T06:45:45.094Z,77.42
2022-10-04T06:48:23.860Z,76.85
2022-10-04T06:51:28.589Z,76.43
2022-10-04T06:54:15.294Z,76.92
2022-10-04T06:57:14.209Z,76.67
2022-10-04T07:00:01.358Z,76.33
2022-10-04T07:02:42.681Z,75.86
2022-10-04T07:05:30.755Z,75.60
2022-10-04T07:08:34.305Z,75.28
2022-10-04T07:11:17.632Z,74.81
2022-10-04T07:13:58.466Z,74.20
2022-10-04T07:16:44.007Z,73.76
2022-10-04T07:19:24.907Z,72.90
2022-10-04T07:22:08.269Z,72.35
2022-10-04T07:24:36.660Z,72.61
2022-10-04T07:27:12.467Z,72.74
2022-10-04T07:29:46.282Z,72.49
2022-10-04T07:32:34.804Z,72.29
2022-10-04T07:35:06.417Z,72.58
2022-10-04T07:37:51.260Z,70.47
2022-10-04T07:40:23.127Z,71.49
2022-10-04T07:43:00.072Z,71.13
2022-10-04T07:45:32.899Z,71.56
2022-10-04T07:48:14.648Z,71.29
2022-10-04T07:50:56.314Z,71.38
2022-10-04T07:53:30.282Z,71.45
2022-10-04T07:56:11.002Z,70.96
2022-10-04T07:58:49.745Z,71.10
2022-10-04T08:01:45.899Z,71.25
2022-10-04T08:04:51.417Z,71.65
2022-10-04T08:07:33.253Z,72.02
2022-10-04T08:10:35.691Z,72.51
2022-10-04T08:13:37.513Z,71.71
2022-10-04T08:16:37.187Z,72.78
2022-10-04T08:19:23.033Z,73.11
2022-10-04T08:22:33.479Z,72.47
2022-10-04T08:25:33.010Z,72.17
2022-10-04T08:28:53.319Z,71.97
2022-10-04T08:31:48.624Z,69.84
2022-10-04T08:34:31.300Z,69.70
2022-10-04T08:37:28.045Z,69.88
2022-10-04T08:40:44.301Z,69.84
2022-10-04T08:43:31.069Z,68.71
2022-10-04T08:46:26.322Z,68.54
2022-10-04T08:49:21.632Z,68.56
2022-10-04T08:52:08.657Z,68.92
2022-10-04T08:54:40.479Z,68.54
2022-10-04T08:57:15.835Z,68.41
2022-10-04T08:59:58.073Z,68.55
2022-10-04T09:02:41.728Z,68.37
2022-10-04T09:05:27.823Z,67.40
2022-10-04T09:08:14.405Z,66.78
2022-10-04T09:11:05.169Z,67.53
2022-10-04T09:13:57.256Z,67.79
2022-10-04T09:16:42.830Z,68.12
2022-10-04T09:19:23.526Z,66.62
2022-10-04T09:21:57.569Z,66.04
2022-10-04T09:24:34.173Z,65.82
2022-10-04T09:27:54.730Z,66.36
2022-10-04T09:30:56.916Z,65.58
2022-10-04T09:33:53.586Z,65.73
2022-10-04T09:36:54.633Z,65.19
2022-10-04T09:39:30.472Z,64.41
2022-10-04T09:42:16.885Z,64.31
2022-10-04T09:45:23.348Z,63.97
2022-10-04T09:48:22.496Z,63.28
2022-10-04T09:51:18.899Z,63.31
2022-10-04T09:54:22.129Z,63.69
2022-10-04T09:57:28.275Z,64.34
2022-10-04T10:00:02.955Z,64.94
2022-10-04T10:02:33.986Z,65.44
2022-10-04T10:05:27.041Z,65.39
2022-10-04T10:08:13.617Z,65.36
2022-10-04T10:11:21.898Z,65.75
2022-10-04T10:14:08.475Z,66.78
2022-10-04T10:17:00.978Z,66.55
2022-10-04T10:19:41.882Z,66.77
2022-10-04T10:22:30.715Z,66.34
2022-10-04T10:25:13.073Z,66.00
2022-10-04T10:27:43.786Z,66.56
2022-10-04T10:30:31.408Z,66.53
2022-10-04T10:33:08.694Z,65.84
2022-10-04T10:36:08.357Z,63.24
2022-10-04T10:39:02.530Z,63.28
2022-10-04T10:41:53.072Z,62.58
2022-10-04T10:44:23.648Z,63.14
2022-10-04T10:47:16.569Z,63.31
2022-10-04T10:50:03.958Z,62.82
2022-10-04T10:53:09.997Z,62.08
2022-10-04T10:55:49.398Z,62.09
2022-10-04T10:59:10.819Z,61.93
2022-10-04T11:02:00.569Z,62.05
2022-10-04T11:05:13.339Z,62.92
2022-10-04T11:07:56.325Z,64.33
2022-10-04T11:10:55.030Z,63.65
2022-10-04T11:13:48.720Z,64.18
2022-10-04T11:16:21.524Z,64.56
2022-10-04T11:19:17.646Z,65.75
2022-10-04T11:22:09.782Z,66.60
2022-10-04T11:25:35.153Z,67.02
2022-10-04T11:28:26.591Z,69.60
2022-10-04T11:31:13.343Z,70.29
2022-10-04T11:34:05.523Z,71.62
2022-10-04T11:36:51.052Z,70.78
2022-10-04T11:39:44.534Z,70.87
2022-10-04T11:42:57.356Z,71.86
2022-10-04T11:45:42.789Z,72.13
2022-10-04T11:48:23.274Z,72.33
2022-10-04T11:51:06.215Z,72.06
2022-10-04T11:53:45.353Z,72.21
2022-10-04T11:56:35.352Z,73.11
2022-10-04T11:59:28.116Z,72.73
2022-10-04T12:02:27.274Z,73.44
2022-10-04T12:05:36.717Z,73.17
2022-10-04T12:08:49.106Z,73.39
2022-10-04T12:11:51.843Z,73.30
2022-10-04T12:14:24.861Z,73.15
2022-10-04T12:16:58.669Z,73.36
2022-10-04T12:19:39.752Z,73.45
2022-10-04T12:22:23.646Z,73.65
2022-10-04T12:25:03.375Z,74.20
2022-10-04T12:27:46.179Z,74.30
2022-10-04T12:30:23.034Z,74.38
2022-10-04T12:33:03.690Z,74.62
2022-10-04T12:35:45.817Z,74.97
2022-10-04T12:38:21.316Z,75.17
2022-10-04T12:41:16.110Z,74.88
2022-10-04T12:44:00.760Z,74.80
2022-10-04T12:46:45.630Z,74.96
2022-10-04T12:49:28.877Z,74.90
2022-10-04T12:52:12.002Z,75.19
2022-10-04T12:55:06.244Z,75.11
2022-10-04T12:58:19.687Z,74.52
2022-10-04T13:00:49.472Z,74.49
2022-10-04T13:03:23.013Z,74.58
2022-10-04T13:06:07.944Z,73.33
2022-10-04T13:08:53.947Z,72.54
2022-10-04T13:11:33.491Z,72.78
2022-10-04T13:14:26.612Z,72.04
2022-10-04T13:17:34.640Z,72.80
2022-10-04T13:20:37.942Z,72.40
2022-10-04T13:23:19.579Z,73.30
2022-10-04T13:26:04.430Z,73.38
2022-10-04T13:28:44.076Z,72.23
2022-10-04T13:31:35.138Z,71.87
2022-10-04T13:34:29.493Z,71.06
2022-10-04T13:37:12.247Z,70.77
2022-10-04T13:40:12.672Z,70.93
2022-10-04T13:42:49.659Z,70.25
2022-10-04T13:45:45.426Z,70.46
2022-10-04T13:49:04.550Z,70.53
2022-10-04T13:52:27.128Z,70.60
2022-10-04T13:55:53.066Z,69.87
2022-10-04T13:58:32.251Z,68.88
2022-10-04T14:01:02.911Z,69.04
2022-10-04T14:03:54.956Z,68.74
2022-10-04T14:06:38.688Z,68.65
2022-10-04T14:09:48.455Z,68.22
2022-10-04T14:12:42.900Z,68.25
2022-10-04T14:15:11.332Z,67.74
2022-10-04T14:18:10.643Z,68.10
2022-10-04T14:21:00.082Z,69.14
2022-10-04T14:23:37.912Z,69.08
2022-10-04T14:26:23.436Z,68.84
2022-10-04T14:29:28.620Z,68.50
2022-10-04T14:32:33.566Z,68.20
2022-10-04T14:35:13.483Z,68.29
2022-10-04T14:37:55.399Z,69.10
2022-10-04T14:40:57.143Z,67.74
2022-10-04T14:43:43.702Z,67.80
2022-10-04T14:46:42.119Z,67.52
2022-10-04T14:49:29.725Z,67.65
2022-10-04T14:52:36.758Z,67.28
2022-10-04T14:55:10.710Z,65.85
2022-10-04T14:57:38.504Z,66.51
2022-10-04T15:00:11.977Z,66.36
2022-10-04T15:03:04.422Z,66.20
2022-10-04T15:06:08.945Z,67.08
2022-10-04T15:08:57.923Z,67.13
2022-10-04T15:12:21.417Z,67.37
2022-10-04T15:15:12.293Z,67.07
2022-10-04T15:17:52.365Z,66.44
2022-10-04T15:20:57.373Z,66.26
2022-10-04T15:23:47.873Z,66.40
2022-10-04T15:26:18.535Z,66.68
2022-10-04T15:28:49.393Z,67.06
2022-10-04T15:31:28.823Z,67.54
2022-10-04T15:34:24.076Z,68.05
2022-10-04T15:37:29.676Z,67.31
2022-10-04T15:40:24.715Z,68.03
2022-10-04T15:43:11.003Z,67.69
2022-10-04T15:46:02.256Z,68.36
2022-10-04T15:49:09.974Z,69.03
2022-10-04T15:52:10.401Z,69.26
2022-10-04T15:55:15.326Z,69.51
2022-10-04T15:57:46.479Z,69.73
2022-10-04T16:00:41.343Z,69.77
2022-10-04T16:03:21.637Z,70.00
2022-10-04T16:06:12.567Z,70.41
2022-10-04T16:09:20.950Z,70.40
2022-10-04T16:12:20.359Z,70.47
2022-10-04T16:15:31.840Z,70.48
2022-10-04T16:18:17.431Z,70.51
2022-10-04T16:21:06.217Z,70.69
2022-10-04T16:23:37.125Z,70.96
2022-10-04T16:26:10.425Z,70.79
2022-10-04T16:28:51.442Z,71.33
2022-10-04T16:31:38.480Z,70.84
2022-10-04T16:34:08.145Z,71.06
2022-10-04T16:36:58.863Z,71.39
2022-10-04T16:40:00.117Z,71.25
2022-10-04T16:43:05.767Z,71.43
2022-10-04T16:45:40.886Z,71.24
2022-10-04T16:48:27.488Z,71.15
2022-10-04T16:51:13.389Z,71.60
2022-10-04T16:53:44.922Z,71.10
2022-10-04T16:56:17.987Z,71.59
2022-10-04T16:59:00.906Z,71.52
2022-10-04T17:01:41.024Z,71.66
2022-10-04T17:04:36.392Z,72.15
2022-10-04T17:07:12.258Z,72.07
2022-10-04T17:10:12.701Z,72.27
2022-10-04T17:12:47.623Z,72.54
2022-10-04T17:15:15.709Z,72.66
2022-10-04T17:18:11.551Z,72.59
2022-10-04T17:20:42.546Z,72.64
2022-10-04T17:23:31.821Z,72.79
2022-10-04T17:26:35.142Z,72.79
2022-10-04T17:29:32.595Z,73.21
2022-10-04T17:32:27.462Z,73.63
2022-10-04T17:35:20.084Z,73.55
2022-10-04T17:37:59.857Z,73.62
2022-10-04T17:40:40.773Z,73.89
2022-10-04T17:43:23.837Z,74.10
2022-10-04T17:46:16.384Z,73.99
2022-10-04T17:49:15.795Z,74.14
2022-10-04T17:52:12.404Z,74.42
2022-10-04T17:55:08.060Z,74.62
2022-10-04T17:57:35.871Z,74.96
2022-10-04T18:00:09.526Z,75.22
2022-10-04T18:02:37.570Z,75.25
2022-10-04T18:05:21.176Z,75.56
2022-10-04T18:07:57.146Z,75.75
2022-10-04T18:10:30.054Z,75.94
2022-10-04T18:13:12.093Z,76.12
2022-10-04T18:15:53.378Z,76.33
2022-10-04T18:18:29.784Z,76.43
2022-10-04T18:20:57.553Z,76.37
2022-10-04T18:23:27.451Z,76.45
2022-10-04T18:26:17.650Z,76.49
2022-10-04T18:28:47.761Z,76.69
2022-10-04T18:31:41.090Z,76.62
2022-10-04T18:34:29.962Z,76.85
2022-10-04T18:37:05.831Z,76.51
2022-10-04T18:39:53.108Z,76.55
2022-10-04T18:42:35.283Z,76.41
2022-10-04T18:45:34.065Z,76.05
2022-10-04T18:48:14.487Z,75.88
2022-10-04T18:50:47.364Z,75.61
2022-10-04T18:53:33.608Z,75.43
2022-10-04T18:56:20.517Z,75.32
2022-10-04T18:59:32.187Z,75.40
2022-10-04T19:03:00.502Z,75.50
2022-10-04T19:05:52.093Z,75.31
2022-10-04T19:08:38.853Z,75.43
2022-10-04T19:11:19.403Z,75.63
2022-10-04T19:14:10.217Z,75.81
2022-10-04T19:16:55.226Z,75.51
2022-10-04T19:19:31.647Z,75.54
2022-10-04T19:22:12.387Z,75.48
2022-10-04T19:25:02.195Z,75.82
2022-10-04T19:27:41.215Z,75.76
2022-10-04T19:30:22.859Z,75.61
2022-10-04T19:33:07.003Z,75.50
2022-10-04T19:35:38.032Z,75.17
2022-10-04T19:38:29.557Z,75.22
2022-10-04T19:40:57.798Z,75.15
2022-10-04T19:43:44.155Z,75.56
2022-10-04T19:46:26.227Z,75.55
2022-10-04T19:48:54.811Z,75.74
2022-10-04T19:51:34.393Z,75.94
2022-10-04T19:54:15.754Z,75.83
2022-10-04T19:56:49.720Z,76.12
2022-10-04T19:59:24.350Z,76.00
2022-10-04T20:01:53.191Z,76.10
2022-10-04T20:04:35.685Z,76.12
2022-10-04T20:07:23.363Z,76.00
2022-10-04T20:09:57.608Z,75.69
2022-10-04T20:12:35.804Z,75.99
2022-10-04T20:35:02.339Z,75.98
2022-10-04T20:37:45.132Z,76.21
2022-10-04T20:40:21.837Z,76.34
2022-10-04T20:43:26.613Z,76.45
2022-10-04T20:45:55.336Z,76.52
2022-10-04T20:48:29.059Z,76.60
2022-10-04T20:51:06.546Z,76.90
2022-10-04T20:53:34.635Z,77.09
2022-10-04T20:56:28.126Z,77.01
2022-10-04T20:59:01.205Z,76.91
2022-10-04T21:01:38.165Z,76.75
2022-10-04T21:04:50.064Z,76.95
2022-10-04T21:07:20.841Z,76.79
2022-10-04T21:09:49.770Z,76.66
2022-10-04T21:12:29.500Z,76.87
2022-10-04T21:15:17.797Z,76.83
2022-10-04T21:18:07.574Z,76.61
2022-10-04T21:20:52.312Z,76.87
2022-10-04T21:23:33.695Z,77.00
2022-10-04T21:26:21.164Z,76.92
2022-10-04T21:29:01.647Z,76.80
2022-10-04T21:31:29.648Z,76.96
2022-10-04T21:33:57.612Z,77.09
2022-10-04T21:36:25.938Z,77.21
2022-10-04T21:38:54.412Z,77.04
2022-10-04T21:41:22.212Z,76.91
2022-10-04T21:43:49.998Z,76.85
2022-10-04T21:46:20.365Z,76.86
2022-10-04T21:48:48.773Z,76.98
2022-10-04T21:51:16.717Z,76.88
2022-10-04T21:53:44.602Z,77.02
2022-10-04T21:56:12.614Z,77.37
2022-10-04T21:58:40.500Z,77.18
2022-10-04T22:01:08.530Z,77.17
2022-10-04T22:03:36.500Z,77.13
2022-10-04T22:06:04.461Z,77.05
2022-10-04T22:08:32.393Z,77.06
2022-10-04T22:11:00.287Z,77.05
2022-10-04T22:13:28.288Z,77.01
2022-10-04T22:15:56.217Z,77.02
2022-10-04T22:18:24.122Z,77.21
2022-10-04T22:20:51.934Z,77.09
2022-10-04T22:23:22.903Z,77.07
2022-10-04T22:25:51.201Z,77.04
2022-10-04T22:28:24.808Z,77.19
2022-10-04T22:30:55.887Z,77.25
2022-10-04T22:33:50.899Z,77.44
2022-10-04T22:36:35.871Z,77.34
2022-10-04T22:39:15.141Z,77.38
2022-10-04T22:41:47.443Z,77.48
2022-10-04T22:44:19.367Z,77.54
2022-10-04T22:46:51.800Z,77.52
2022-10-04T22:49:44.461Z,77.57
2022-10-04T22:52:21.661Z,77.35
2022-10-04T22:54:52.691Z,77.18
2022-10-04T22:57:20.885Z,77.14
2022-10-04T22:59:51.270Z,77.29
2022-10-04T23:02:26.792Z,77.15
2022-10-04T23:05:19.240Z,77.11
2022-10-04T23:07:51.277Z,77.31
2022-10-04T23:10:21.412Z,77.50
2022-10-04T23:12:49.704Z,77.48
2022-10-04T23:15:20.603Z,77.36
2022-10-04T23:17:55.378Z,77.66
2022-10-04T23:20:23.649Z,77.65
2022-10-04T23:22:53.318Z,77.80
2022-10-04T23:25:28.859Z,77.50
2022-10-04T23:28:01.224Z,77.50
2022-10-04T23:30:29.207Z,77.61
2022-10-04T23:33:00.677Z,77.58
2022-10-04T23:35:33.189Z,77.74
2022-10-04T23:38:07.281Z,77.82
2022-10-04T23:40:35.187Z,77.87
2022-10-04T23:43:06.085Z,77.65
2022-10-04T23:45:35.888Z,77.52
2022-10-04T23:48:08.709Z,77.86
2022-10-04T23:50:38.471Z,77.82
2022-10-04T23:53:19.737Z,77.67
2022-10-04T23:55:47.593Z,77.40
2022-10-04T23:58:30.112Z,77.55
